createdAt,value
2019-02-16T00:01:21.072Z,3.10
2019-02-16T00:03:49.188Z,2.87
2019-02-16T00:06:17.052Z,3.08
2019-02-16T00:08:44.963Z,2.98
2019-02-16T00:11:12.852Z,3.00
2019-02-16T00:13:40.777Z,3.00
2019-02-16T00:16:08.680Z,3.20
2019-02-16T00:18:36.545Z,4.90
2019-02-16T00:21:04.539Z,3.47
2019-02-16T00:23:33.521Z,4.30
2019-02-16T00:26:01.431Z,3.30
2019-02-16T00:28:29.282Z,3.10
2019-02-16T00:30:57.343Z,2.40
2019-02-16T00:33:25.215Z,2.52
2019-02-16T00:35:53.096Z,3.22
2019-02-16T00:38:21.014Z,3.52
2019-02-16T00:40:48.908Z,3.20
2019-02-16T00:43:16.782Z,3.22
2019-02-16T00:45:44.687Z,2.70
2019-02-16T00:48:12.762Z,2.52
2019-02-16T00:50:40.625Z,2.60
2019-02-16T00:53:08.749Z,2.10
2019-02-16T00:55:36.647Z,1.87
2019-02-16T00:58:04.520Z,1.80
2019-02-16T01:00:32.462Z,1.87
2019-02-16T01:03:00.357Z,1.70
2019-02-16T01:05:28.244Z,1.70
2019-02-16T01:07:56.130Z,1.70
2019-02-16T01:10:24.069Z,1.92
2019-02-16T01:12:51.953Z,1.60
2019-02-16T01:15:19.876Z,2.40
2019-02-16T01:17:47.754Z,4.00
2019-02-16T01:20:15.658Z,3.60
2019-02-16T01:22:43.723Z,2.50
2019-02-16T01:25:11.826Z,1.85
2019-02-16T01:27:39.715Z,1.42
2019-02-16T01:30:07.633Z,1.60
2019-02-16T01:32:35.719Z,2.02
2019-02-16T01:35:03.655Z,2.05
2019-02-16T01:37:31.732Z,1.85
2019-02-16T01:39:59.590Z,2.17
2019-02-16T01:42:27.467Z,1.75
2019-02-16T01:44:55.366Z,2.00
2019-02-16T01:47:23.252Z,1.95
2019-02-16T01:49:51.134Z,1.65
2019-02-16T01:52:19.038Z,2.10
2019-02-16T01:54:46.916Z,1.85
2019-02-16T01:57:14.803Z,1.82
2019-02-16T01:59:42.722Z,1.72
2019-02-16T02:02:10.811Z,2.10
2019-02-16T02:04:38.788Z,2.10
2019-02-16T02:07:06.716Z,1.80
2019-02-16T02:09:34.583Z,1.47
2019-02-16T02:12:04.444Z,1.70
2019-02-16T02:14:32.656Z,1.70
2019-02-16T02:17:00.510Z,2.00
2019-02-16T02:19:28.369Z,2.10
2019-02-16T02:21:56.415Z,2.37
2019-02-16T02:24:24.264Z,3.12
2019-02-16T02:26:52.181Z,2.70
2019-02-16T02:29:20.079Z,3.08
2019-02-16T02:31:49.018Z,3.67
2019-02-16T02:34:16.883Z,3.72
2019-02-16T02:36:44.992Z,3.30
2019-02-16T02:39:12.875Z,2.58
2019-02-16T02:41:40.751Z,2.15
2019-02-16T02:44:08.659Z,1.70
2019-02-16T02:46:36.562Z,1.70
2019-02-16T02:49:04.420Z,1.62
2019-02-16T02:51:32.328Z,1.80
2019-02-16T02:54:00.234Z,2.00
2019-02-16T02:56:28.291Z,1.92
2019-02-16T02:58:56.219Z,2.00
2019-02-16T03:01:24.138Z,2.08
2019-02-16T03:03:53.137Z,2.35
2019-02-16T03:06:21.217Z,2.42
2019-02-16T03:08:49.114Z,2.62
2019-02-16T03:11:16.991Z,2.58
2019-02-16T03:13:45.018Z,3.62
2019-02-16T03:16:13.005Z,3.15
2019-02-16T03:18:41.136Z,3.35
2019-02-16T03:21:09.052Z,3.62
2019-02-16T03:23:36.923Z,3.45
2019-02-16T03:26:04.784Z,4.10
2019-02-16T03:28:32.670Z,4.40
2019-02-16T03:31:00.560Z,4.75
2019-02-16T03:33:28.823Z,4.83
2019-02-16T03:35:56.732Z,4.80
2019-02-16T03:38:24.813Z,4.00
2019-02-16T03:40:52.673Z,4.50
2019-02-16T03:43:21.714Z,3.72
2019-02-16T03:45:49.597Z,4.20
2019-02-16T03:48:17.483Z,3.92
2019-02-16T03:50:45.829Z,3.00
2019-02-16T03:53:13.688Z,2.52
2019-02-16T03:55:42.623Z,2.27
2019-02-16T03:58:10.571Z,2.37
2019-02-16T04:00:38.604Z,2.30
2019-02-16T04:03:06.501Z,2.45
2019-02-16T04:05:34.379Z,2.00
2019-02-16T04:08:02.207Z,2.02
2019-02-16T04:10:30.205Z,1.70
2019-02-16T04:12:58.441Z,1.80
2019-02-16T04:15:26.277Z,1.70
2019-02-16T04:17:54.129Z,1.72
2019-02-16T04:20:21.997Z,1.40
2019-02-16T04:22:49.837Z,1.70
2019-02-16T04:25:17.658Z,2.00
2019-02-16T04:27:45.581Z,1.90
2019-02-16T04:30:13.434Z,1.30
2019-02-16T04:32:41.442Z,2.00
2019-02-16T04:35:10.366Z,1.60
2019-02-16T04:37:38.201Z,1.80
2019-02-16T04:40:06.153Z,1.70
2019-02-16T04:42:34.001Z,1.45
2019-02-16T04:45:04.859Z,1.77
2019-02-16T04:47:33.091Z,2.17
2019-02-16T04:50:00.945Z,2.10
2019-02-16T04:52:34.948Z,2.70
2019-02-16T04:54:58.298Z,2.15
2019-02-16T04:57:26.324Z,2.50
2019-02-16T04:59:54.375Z,3.10
2019-02-16T05:02:22.241Z,2.95
2019-02-16T05:04:50.285Z,2.80
2019-02-16T05:07:18.165Z,2.35
2019-02-16T05:09:46.021Z,2.15
2019-02-16T05:12:13.852Z,1.75
2019-02-16T05:14:41.724Z,1.45
2019-02-16T05:17:09.670Z,1.90
2019-02-16T05:19:37.516Z,1.70
2019-02-16T05:22:05.363Z,1.75
2019-02-16T05:24:33.629Z,1.40
2019-02-16T05:27:01.486Z,1.57
2019-02-16T05:29:29.371Z,1.57
2019-02-16T05:31:57.226Z,1.50
2019-02-16T05:34:25.049Z,1.47
2019-02-16T05:36:52.912Z,1.40
2019-02-16T05:39:20.767Z,1.30
2019-02-16T05:41:48.786Z,1.42
2019-02-16T05:44:17.088Z,1.27
2019-02-16T05:46:44.894Z,1.57
2019-02-16T05:49:13.217Z,1.55
2019-02-16T05:51:41.270Z,1.60
2019-02-16T05:54:09.091Z,1.50
2019-02-16T05:56:37.428Z,1.50
2019-02-16T05:59:05.284Z,1.40
2019-02-16T06:01:33.108Z,1.40
2019-02-16T06:04:00.936Z,1.20
2019-02-16T06:06:28.802Z,1.45
2019-02-16T06:08:56.637Z,1.35
2019-02-16T06:11:24.866Z,1.30
2019-02-16T06:13:52.734Z,1.20
2019-02-16T06:16:20.950Z,1.55
2019-02-16T06:18:48.943Z,1.67
2019-02-16T06:21:16.979Z,1.60
2019-02-16T06:23:44.820Z,1.40
2019-02-16T06:26:12.946Z,1.40
2019-02-16T06:28:40.860Z,1.75
2019-02-16T06:31:08.861Z,1.40
2019-02-16T06:33:37.481Z,1.42
2019-02-16T06:36:12.153Z,1.85
2019-02-16T06:38:40.477Z,1.75
2019-02-16T06:41:08.301Z,1.80
2019-02-16T06:43:36.213Z,2.10
2019-02-16T06:46:04.039Z,1.80
2019-02-16T06:48:31.883Z,1.70
2019-02-16T06:50:59.749Z,1.57
2019-02-16T06:53:28.107Z,1.95
2019-02-16T06:56:03.322Z,1.60
2019-02-16T06:58:31.168Z,1.60
2019-02-16T07:00:59.260Z,1.45
2019-02-16T07:03:27.158Z,1.40
2019-02-16T07:05:55.015Z,1.42
2019-02-16T07:08:22.825Z,1.90
2019-02-16T07:10:50.669Z,1.82
2019-02-16T07:13:18.490Z,1.90
2019-02-16T07:15:51.507Z,1.37
2019-02-16T07:18:31.228Z,1.40
2019-02-16T07:20:59.089Z,1.30
2019-02-16T07:23:26.948Z,1.65
2019-02-16T07:25:55.280Z,1.70
2019-02-16T07:28:23.270Z,1.60
2019-02-16T07:30:51.289Z,1.80
2019-02-16T07:33:19.156Z,1.32
2019-02-16T07:35:47.343Z,1.40
2019-02-16T07:38:15.742Z,2.45
2019-02-16T07:40:43.614Z,2.45
2019-02-16T07:43:30.295Z,2.52
2019-02-16T07:46:04.389Z,3.17
2019-02-16T07:48:59.782Z,2.42
2019-02-16T07:51:49.502Z,2.85
2019-02-16T07:54:27.256Z,5.17
2019-02-16T07:57:05.727Z,5.47
2019-02-16T07:59:38.793Z,5.97
2019-02-16T08:02:31.835Z,5.10
2019-02-16T08:05:11.513Z,5.20
2019-02-16T08:08:07.489Z,5.13
2019-02-16T08:10:57.535Z,5.23
2019-02-16T08:13:50.356Z,5.17
2019-02-16T08:16:46.375Z,5.67
2019-02-16T08:19:36.052Z,3.90
2019-02-16T08:22:41.212Z,5.37
2019-02-16T08:25:39.826Z,4.50
2019-02-16T08:28:13.531Z,5.53
2019-02-16T08:31:03.328Z,7.50
2019-02-16T08:33:48.719Z,6.50
2019-02-16T08:36:41.497Z,6.93
2019-02-16T08:39:31.220Z,6.43
2019-02-16T08:42:17.111Z,7.30
2019-02-16T08:44:53.661Z,6.50
2019-02-16T08:47:52.325Z,6.00
2019-02-16T08:50:54.274Z,5.87
2019-02-16T08:53:49.604Z,5.60
2019-02-16T08:56:29.242Z,6.20
2019-02-16T08:59:22.417Z,6.70
2019-02-16T09:02:06.111Z,6.10
2019-02-16T09:05:11.455Z,6.17
2019-02-16T09:07:57.617Z,7.90
2019-02-16T09:10:53.373Z,6.07
2019-02-16T09:13:42.375Z,6.03
2019-02-16T09:16:16.273Z,6.30
2019-02-16T09:19:06.461Z,6.00
2019-02-16T09:21:53.159Z,7.13
2019-02-16T09:24:38.598Z,6.80
2019-02-16T09:27:43.376Z,6.93
2019-02-16T09:30:48.055Z,5.63
2019-02-16T09:33:26.007Z,5.60
2019-02-16T09:36:02.723Z,6.00
2019-02-16T09:38:46.210Z,6.03
2019-02-16T09:41:32.632Z,6.90
2019-02-16T09:44:37.708Z,7.37
2019-02-16T09:47:23.610Z,5.80
2019-02-16T09:50:08.316Z,5.87
2019-02-16T09:52:52.602Z,6.00
2019-02-16T09:55:42.274Z,6.13
2019-02-16T09:58:35.370Z,6.40
2019-02-16T10:01:11.622Z,5.90
2019-02-16T10:04:10.578Z,5.30
2019-02-16T10:06:56.150Z,7.20
2019-02-16T10:09:43.229Z,5.37
2019-02-16T10:12:29.905Z,7.07
2019-02-16T10:15:35.081Z,5.10
2019-02-16T10:18:21.761Z,6.23
2019-02-16T10:21:07.257Z,5.90
2019-02-16T10:23:59.904Z,5.20
2019-02-16T10:26:49.445Z,5.10
2019-02-16T10:29:39.437Z,5.17
2019-02-16T10:32:24.202Z,6.27
2019-02-16T10:35:02.063Z,5.20
2019-02-16T10:37:44.948Z,5.97
2019-02-16T10:40:41.046Z,5.73
2019-02-16T10:43:17.235Z,5.83
2019-02-16T10:46:16.572Z,5.57
2019-02-16T10:49:02.294Z,6.33
2019-02-16T10:51:51.975Z,6.50
2019-02-16T10:54:47.353Z,7.03
2019-02-16T10:57:32.466Z,7.13
2019-02-16T11:00:13.758Z,6.80
2019-02-16T11:02:51.610Z,6.80
2019-02-16T11:05:28.592Z,6.83
2019-02-16T11:08:04.786Z,7.03
2019-02-16T11:10:41.157Z,8.10
2019-02-16T11:13:43.045Z,7.60
2019-02-16T11:16:34.823Z,6.93
2019-02-16T11:19:20.572Z,7.10
2019-02-16T11:21:56.279Z,7.27
2019-02-16T11:24:41.032Z,7.20
2019-02-16T11:27:26.301Z,7.73
2019-02-16T11:30:04.071Z,7.50
2019-02-16T11:32:42.082Z,7.30
2019-02-16T11:35:40.885Z,7.63
2019-02-16T11:38:33.595Z,8.90
2019-02-16T11:41:23.516Z,8.43
2019-02-16T11:44:10.436Z,8.07
2019-02-16T11:46:55.815Z,8.27
2019-02-16T11:49:45.351Z,8.93
2019-02-16T11:52:24.635Z,8.10
2019-02-16T11:55:02.990Z,8.97
2019-02-16T11:57:48.327Z,8.77
2019-02-16T12:00:32.984Z,7.60
2019-02-16T12:03:25.501Z,8.90
2019-02-16T12:06:17.134Z,8.40
2019-02-16T12:09:02.726Z,9.20
2019-02-16T12:11:52.982Z,8.77
2019-02-16T12:14:49.030Z,9.13
2019-02-16T12:17:38.206Z,9.03
2019-02-16T12:20:17.918Z,8.60
2019-02-16T12:22:57.393Z,10.47
2019-02-16T12:25:46.905Z,9.27
2019-02-16T12:28:42.697Z,9.47
2019-02-16T12:31:27.987Z,7.90
2019-02-16T12:34:15.788Z,8.10
2019-02-16T12:37:09.035Z,7.80
2019-02-16T12:39:52.130Z,7.80
2019-02-16T12:42:42.784Z,8.63
2019-02-16T12:45:21.456Z,7.43
2019-02-16T12:48:14.361Z,9.10
2019-02-16T12:50:58.108Z,8.00
2019-02-16T12:53:44.433Z,8.30
2019-02-16T12:56:33.919Z,8.37
2019-02-16T12:59:16.212Z,8.30
2019-02-16T13:01:50.313Z,8.03
2019-02-16T13:04:38.063Z,9.57
2019-02-16T13:07:25.162Z,9.40
2019-02-16T13:10:14.747Z,8.57
2019-02-16T13:12:55.706Z,10.20
2019-02-16T13:15:51.343Z,9.10
2019-02-16T13:18:28.232Z,9.57
2019-02-16T13:21:30.043Z,10.13
2019-02-16T13:24:16.734Z,9.40
2019-02-16T13:27:03.444Z,10.30
2019-02-16T13:29:46.500Z,9.63
2019-02-16T13:32:33.233Z,10.03
2019-02-16T13:35:32.158Z,9.33
2019-02-16T13:38:27.994Z,9.77
2019-02-16T13:41:10.724Z,10.33
2019-02-16T13:44:09.601Z,12.30
2019-02-16T13:46:56.465Z,12.87
2019-02-16T13:49:43.281Z,15.17
2019-02-16T13:52:39.469Z,13.27
2019-02-16T13:55:38.745Z,12.50
2019-02-16T13:58:25.454Z,12.30
2019-02-16T14:01:10.470Z,12.23
2019-02-16T14:03:59.936Z,11.70
2019-02-16T14:06:37.874Z,11.50
2019-02-16T14:09:30.539Z,10.73
2019-02-16T14:12:12.321Z,11.37
2019-02-16T14:15:04.390Z,10.37
2019-02-16T14:17:46.399Z,9.77
2019-02-16T14:20:14.238Z,10.00
2019-02-16T14:22:42.168Z,9.40
2019-02-16T14:25:14.485Z,10.97
2019-02-16T14:27:42.354Z,10.50
2019-02-16T14:30:10.180Z,10.33
2019-02-16T14:32:38.039Z,8.77
2019-02-16T14:35:05.877Z,9.00
2019-02-16T14:37:52.782Z,9.20
2019-02-16T14:40:21.515Z,8.63
2019-02-16T14:42:50.373Z,8.30
2019-02-16T14:45:18.407Z,8.33
2019-02-16T14:47:46.256Z,8.60
2019-02-16T14:50:14.083Z,8.67
2019-02-16T14:52:41.945Z,9.53
2019-02-16T14:55:09.786Z,9.03
2019-02-16T14:57:37.633Z,9.53
2019-02-16T15:00:05.677Z,9.87
2019-02-16T15:02:33.560Z,9.03
2019-02-16T15:05:01.788Z,9.40
2019-02-16T15:07:29.696Z,10.10
2019-02-16T15:09:57.571Z,8.77
2019-02-16T15:12:25.960Z,9.50
2019-02-16T15:14:53.929Z,8.97
2019-02-16T15:17:21.841Z,8.90
2019-02-16T15:19:49.802Z,8.77
2019-02-16T15:22:17.745Z,8.20
2019-02-16T15:24:45.893Z,8.67
2019-02-16T15:27:14.277Z,7.50
2019-02-16T15:29:44.719Z,7.70
2019-02-16T15:32:12.721Z,7.03
2019-02-16T15:34:40.611Z,7.17
2019-02-16T15:37:08.678Z,7.60
2019-02-16T15:39:36.563Z,7.37
2019-02-16T15:42:04.464Z,7.53
2019-02-16T15:44:32.378Z,7.73
2019-02-16T15:47:00.643Z,7.60
2019-02-16T15:49:28.548Z,7.27
2019-02-16T15:51:56.470Z,8.00
2019-02-16T15:54:24.375Z,7.00
2019-02-16T15:56:52.277Z,8.30
2019-02-16T15:59:20.283Z,9.00
2019-02-16T16:01:48.819Z,8.23
2019-02-16T16:04:16.805Z,9.90
2019-02-16T16:06:44.625Z,9.20
2019-02-16T16:09:29.971Z,9.23
2019-02-16T16:12:15.030Z,10.23
2019-02-16T16:14:59.825Z,9.00
2019-02-16T16:17:52.297Z,8.70
2019-02-16T16:20:37.654Z,9.20
2019-02-16T16:23:15.065Z,10.70
2019-02-16T16:25:51.522Z,11.60
2019-02-16T16:28:38.222Z,12.90
2019-02-16T16:31:19.622Z,11.27
2019-02-16T16:34:00.916Z,14.87
2019-02-16T16:36:47.610Z,24.40
2019-02-16T16:39:21.932Z,30.10
2019-02-16T16:42:07.652Z,20.97
2019-02-16T16:45:03.332Z,12.82
2019-02-16T16:47:49.049Z,16.93
2019-02-16T16:50:38.713Z,11.20
2019-02-16T16:53:38.769Z,9.25
2019-02-16T16:56:28.448Z,9.48
2019-02-16T16:59:15.652Z,10.18
2019-02-16T17:01:55.570Z,10.95
2019-02-16T17:04:48.477Z,9.45
2019-02-16T17:07:44.585Z,9.43
2019-02-16T17:10:30.100Z,10.48
2019-02-16T17:13:19.530Z,9.40
2019-02-16T17:15:55.289Z,10.70
2019-02-16T17:18:52.681Z,11.30
2019-02-16T17:21:38.388Z,9.93
2019-02-16T17:24:23.941Z,9.80
2019-02-16T17:27:09.325Z,10.25
2019-02-16T17:29:56.181Z,9.88
2019-02-16T17:32:31.279Z,10.10
2019-02-16T17:35:15.046Z,10.70
2019-02-16T17:37:58.004Z,10.15
2019-02-16T17:40:39.555Z,10.55
2019-02-16T17:43:13.605Z,22.42
2019-02-16T17:46:06.170Z,17.70
2019-02-16T17:48:49.684Z,14.43
2019-02-16T17:51:39.219Z,12.28
2019-02-16T17:54:32.012Z,10.03
2019-02-16T17:57:24.694Z,11.50
2019-02-16T17:59:59.251Z,12.15
2019-02-16T18:02:53.148Z,10.58
2019-02-16T18:05:49.034Z,10.10
2019-02-16T18:08:41.807Z,9.08
2019-02-16T18:11:22.482Z,8.38
2019-02-16T18:14:01.236Z,8.48
2019-02-16T18:16:38.086Z,10.80
2019-02-16T18:19:29.379Z,12.25
2019-02-16T18:22:34.454Z,12.10
2019-02-16T18:25:36.163Z,12.25
2019-02-16T18:28:28.984Z,12.53
2019-02-16T18:31:18.462Z,7.37
2019-02-16T18:34:08.206Z,6.70
2019-02-16T18:37:10.009Z,6.20
2019-02-16T18:39:51.158Z,4.87
2019-02-16T18:42:36.431Z,4.30
2019-02-16T18:45:17.834Z,4.15
2019-02-16T18:47:58.970Z,3.50
2019-02-16T18:50:39.029Z,3.47
2019-02-16T18:53:21.008Z,4.45
2019-02-16T18:56:22.865Z,3.30
2019-02-16T18:58:59.005Z,2.67
2019-02-16T19:01:44.486Z,3.15
2019-02-16T19:04:40.475Z,2.60
2019-02-16T19:07:27.189Z,4.17
2019-02-16T19:10:23.265Z,3.87
2019-02-16T19:13:04.320Z,3.58
2019-02-16T19:15:51.151Z,2.92
2019-02-16T19:18:36.965Z,3.20
2019-02-16T19:21:23.641Z,3.50
2019-02-16T19:24:16.146Z,3.00
2019-02-16T19:27:01.436Z,2.30
2019-02-16T19:30:06.806Z,2.33
2019-02-16T19:32:52.674Z,3.12
2019-02-16T19:35:42.274Z,3.65
2019-02-16T19:38:20.809Z,4.53
2019-02-16T19:40:58.930Z,4.25
2019-02-16T19:43:51.420Z,5.22
2019-02-16T19:46:34.594Z,6.42
2019-02-16T19:49:27.458Z,3.80
2019-02-16T19:52:22.064Z,4.72
2019-02-16T19:55:07.579Z,6.20
2019-02-16T19:58:03.821Z,6.25
2019-02-16T20:01:02.452Z,5.22
2019-02-16T20:03:52.542Z,4.35
2019-02-16T20:06:38.107Z,4.35
2019-02-16T20:09:17.868Z,5.53
2019-02-16T20:12:02.051Z,7.70
2019-02-16T20:14:55.389Z,7.00
2019-02-16T20:17:40.690Z,7.25
2019-02-16T20:20:39.435Z,5.80
2019-02-16T20:23:23.931Z,6.85
2019-02-16T20:26:08.350Z,7.55
2019-02-16T20:28:48.124Z,7.17
2019-02-16T20:31:40.757Z,7.05
2019-02-16T20:34:15.618Z,7.37
2019-02-16T20:36:52.019Z,6.80
2019-02-16T20:39:48.045Z,5.78
2019-02-16T20:42:37.501Z,4.67
2019-02-16T20:45:12.172Z,5.30
2019-02-16T20:48:02.033Z,6.10
2019-02-16T20:50:47.701Z,6.15
2019-02-16T20:53:23.580Z,7.15
2019-02-16T20:56:15.194Z,6.30
2019-02-16T20:58:50.251Z,4.60
2019-02-16T21:01:30.043Z,4.20
2019-02-16T21:04:26.044Z,4.33
2019-02-16T21:07:11.625Z,3.92
2019-02-16T21:10:01.107Z,4.65
2019-02-16T21:13:03.252Z,6.15
2019-02-16T21:15:36.461Z,7.42
2019-02-16T21:18:32.341Z,6.95
2019-02-16T21:21:18.965Z,11.00
2019-02-16T21:24:04.334Z,7.35
2019-02-16T21:26:59.838Z,5.55
2019-02-16T21:29:58.745Z,3.92
2019-02-16T21:32:35.232Z,3.52
2019-02-16T21:35:31.084Z,5.53
2019-02-16T21:38:16.380Z,5.35
2019-02-16T21:40:51.168Z,4.85
2019-02-16T21:43:37.829Z,5.35
2019-02-16T21:46:30.733Z,5.40
2019-02-16T21:49:12.925Z,5.55
2019-02-16T21:52:03.004Z,5.45
2019-02-16T21:54:48.796Z,12.88
2019-02-16T21:57:38.546Z,5.70
2019-02-16T22:00:30.530Z,4.10
2019-02-16T22:03:17.303Z,3.08
2019-02-16T22:06:09.459Z,3.33
2019-02-16T22:08:54.211Z,3.30
2019-02-16T22:11:53.257Z,3.52
2019-02-16T22:14:21.101Z,3.20
2019-02-16T22:16:48.940Z,3.40
2019-02-16T22:19:16.941Z,3.05
2019-02-16T22:21:45.345Z,2.85
2019-02-16T22:24:13.206Z,3.00
2019-02-16T22:26:41.802Z,3.20
2019-02-16T22:29:10.190Z,3.12
2019-02-16T22:31:38.551Z,4.30
2019-02-16T22:34:06.835Z,5.30
2019-02-16T22:36:35.216Z,3.70
2019-02-16T22:39:03.035Z,4.05
2019-02-16T22:41:30.901Z,3.90
2019-02-16T22:43:58.739Z,3.20
2019-02-16T22:46:27.073Z,3.90
2019-02-16T22:48:55.122Z,4.70
2019-02-16T22:51:23.109Z,3.77
2019-02-16T22:53:50.993Z,3.90
2019-02-16T22:56:19.366Z,3.70
2019-02-16T22:58:47.630Z,3.83
2019-02-16T23:01:15.651Z,3.92
2019-02-16T23:03:43.782Z,3.37
2019-02-16T23:06:11.707Z,3.40
2019-02-16T23:08:40.047Z,3.00
2019-02-16T23:11:08.426Z,3.17
2019-02-16T23:13:36.265Z,3.20
2019-02-16T23:16:04.589Z,4.60
2019-02-16T23:18:32.418Z,5.97
2019-02-16T23:21:00.269Z,6.28
2019-02-16T23:23:28.306Z,5.65
2019-02-16T23:25:56.199Z,4.85
2019-02-16T23:28:24.185Z,5.40
2019-02-16T23:30:52.496Z,5.15
2019-02-16T23:33:22.674Z,4.47
2019-02-16T23:35:50.751Z,5.00
2019-02-16T23:38:18.622Z,5.00
2019-02-16T23:40:46.458Z,4.67
2019-02-16T23:43:15.905Z,4.40
2019-02-16T23:45:44.062Z,5.90
2019-02-16T23:48:11.904Z,4.53
2019-02-16T23:50:39.750Z,4.10
2019-02-16T23:53:07.607Z,4.28
2019-02-16T23:55:35.427Z,4.30
2019-02-16T23:58:03.245Z,3.20
